Terminal Aerodrome Forecast
Issued by NWS

Home | Current Version | Previous Version | Text Only | Print | Product List | Glossary On
Versions: 1 2 3 4 5 6 7 8 9 10 11 12 13 14 15 16 17 18 19 20
000
FTUS43 KILX 031900 AAA
TAFCMI
TAF AMD
KCMI 031939Z 0320/0418 23015KT 1SM -RA BR OVC004
      TEMPO 0320/0321 1/4SM FG VV002
     FM032200 24016G22KT 3SM -RA BR BKN006 OVC012
     FM032300 25014G22KT 4SM -DZ BR SCT006 OVC015
     FM040400 29014KT P6SM OVC020
     FM040800 33014KT P6SM SCT020=

USA.gov is the U.S. government's official web portal to all federal, state and local government web resources and services.